sensor_id;sensor_type;location;lat;lon;timestamp;temperature;humidity
9971;DHT22;5026;51.494;11.974;2023-05-07T00:01:09;9.30;99.90
9971;DHT22;5026;51.494;11.974;2023-05-07T00:03:36;9.10;99.90
9971;DHT22;5026;51.494;11.974;2023-05-07T00:06:03;9.10;99.90
9971;DHT22;5026;51.494;11.974;2023-05-07T00:08:30;9.10;99.90
9971;DHT22;5026;51.494;11.974;2023-05-07T00:10:57;9.00;99.90
9971;DHT22;5026;51.494;11.974;2023-05-07T00:13:24;8.90;99.90
9971;DHT22;5026;51.494;11.974;2023-05-07T00:15:53;8.90;99.90
9971;DHT22;5026;51.494;11.974;2023-05-07T00:18:20;9.00;99.90
9971;DHT22;5026;51.494;11.974;2023-05-07T00:20:48;8.90;99.90
9971;DHT22;5026;51.494;11.974;2023-05-07T00:23:14;8.90;99.90
9971;DHT22;5026;51.494;11.974;2023-05-07T00:25:41;8.90;99.90
9971;DHT22;5026;51.494;11.974;2023-05-07T00:28:08;9.00;99.90
9971;DHT22;5026;51.494;11.974;2023-05-07T00:30:35;9.00;99.90
9971;DHT22;5026;51.494;11.974;2023-05-07T00:33:03;9.00;99.90
9971;DHT22;5026;51.494;11.974;2023-05-07T00:35:30;9.00;99.90
9971;DHT22;5026;51.494;11.974;2023-05-07T00:37:57;9.00;99.90
9971;DHT22;5026;51.494;11.974;2023-05-07T00:40:24;8.90;99.90
9971;DHT22;5026;51.494;11.974;2023-05-07T00:42:51;9.00;99.90
9971;DHT22;5026;51.494;11.974;2023-05-07T00:45:26;8.90;99.90
9971;DHT22;5026;51.494;11.974;2023-05-07T00:47:54;8.90;99.90
9971;DHT22;5026;51.494;11.974;2023-05-07T00:50:23;9.00;99.90
9971;DHT22;5026;51.494;11.974;2023-05-07T00:52:50;8.90;99.90
9971;DHT22;5026;51.494;11.974;2023-05-07T00:55:18;8.90;99.90
9971;DHT22;5026;51.494;11.974;2023-05-07T00:57:45;8.90;99.90
9971;DHT22;5026;51.494;11.974;2023-05-07T01:00:13;8.90;99.90
9971;DHT22;5026;51.494;11.974;2023-05-07T01:02:40;8.80;99.90
9971;DHT22;5026;51.494;11.974;2023-05-07T01:05:09;8.90;99.90
9971;DHT22;5026;51.494;11.974;2023-05-07T01:07:38;8.90;99.90
9971;DHT22;5026;51.494;11.974;2023-05-07T01:10:07;8.80;99.90
9971;DHT22;5026;51.494;11.974;2023-05-07T01:12:35;8.90;99.90
9971;DHT22;5026;51.494;11.974;2023-05-07T01:15:05;9.00;99.90
9971;DHT22;5026;51.494;11.974;2023-05-07T01:17:33;9.00;99.90
9971;DHT22;5026;51.494;11.974;2023-05-07T01:20:01;9.00;99.90
9971;DHT22;5026;51.494;11.974;2023-05-07T01:22:32;9.00;99.90
9971;DHT22;5026;51.494;11.974;2023-05-07T01:25:00;9.00;99.90
9971;DHT22;5026;51.494;11.974;2023-05-07T01:27:28;8.90;99.90
9971;DHT22;5026;51.494;11.974;2023-05-07T01:29:54;8.90;99.90
9971;DHT22;5026;51.494;11.974;2023-05-07T01:32:26;8.90;99.90
9971;DHT22;5026;51.494;11.974;2023-05-07T01:34:55;8.90;99.90
9971;DHT22;5026;51.494;11.974;2023-05-07T01:37:25;8.90;99.90
9971;DHT22;5026;51.494;11.974;2023-05-07T01:39:54;8.90;99.90
9971;DHT22;5026;51.494;11.974;2023-05-07T01:42:21;8.90;99.90
9971;DHT22;5026;51.494;11.974;2023-05-07T01:44:48;8.90;99.90
9971;DHT22;5026;51.494;11.974;2023-05-07T01:47:16;9.00;99.90
9971;DHT22;5026;51.494;11.974;2023-05-07T01:49:43;9.00;99.90
9971;DHT22;5026;51.494;11.974;2023-05-07T01:52:11;9.00;99.90
9971;DHT22;5026;51.494;11.974;2023-05-07T01:54:38;9.00;99.90
9971;DHT22;5026;51.494;11.974;2023-05-07T01:57:06;9.00;99.90
9971;DHT22;5026;51.494;11.974;2023-05-07T01:59:34;9.00;99.90
9971;DHT22;5026;51.494;11.974;2023-05-07T02:02:01;9.00;99.90
9971;DHT22;5026;51.494;11.974;2023-05-07T02:04:28;9.00;99.90
9971;DHT22;5026;51.494;11.974;2023-05-07T02:06:55;8.90;99.90
9971;DHT22;5026;51.494;11.974;2023-05-07T02:09:22;8.90;99.90
9971;DHT22;5026;51.494;11.974;2023-05-07T02:11:49;9.00;99.90
9971;DHT22;5026;51.494;11.974;2023-05-07T02:14:17;9.00;99.90
9971;DHT22;5026;51.494;11.974;2023-05-07T02:16:45;9.00;99.90
9971;DHT22;5026;51.494;11.974;2023-05-07T02:19:13;9.00;99.90
9971;DHT22;5026;51.494;11.974;2023-05-07T02:21:39;8.90;99.90
9971;DHT22;5026;51.494;11.974;2023-05-07T02:24:06;8.90;99.90
9971;DHT22;5026;51.494;11.974;2023-05-07T02:26:33;8.90;99.90
9971;DHT22;5026;51.494;11.974;2023-05-07T02:29:00;8.90;99.90
9971;DHT22;5026;51.494;11.974;2023-05-07T02:31:29;8.90;99.90
9971;DHT22;5026;51.494;11.974;2023-05-07T02:33:56;8.90;99.90
9971;DHT22;5026;51.494;11.974;2023-05-07T02:36:23;8.90;99.90
9971;DHT22;5026;51.494;11.974;2023-05-07T02:38:50;8.90;99.90
9971;DHT22;5026;51.494;11.974;2023-05-07T02:41:17;8.90;99.90
9971;DHT22;5026;51.494;11.974;2023-05-07T02:43:43;8.90;99.90
9971;DHT22;5026;51.494;11.974;2023-05-07T02:46:10;8.80;99.90
9971;DHT22;5026;51.494;11.974;2023-05-07T02:48:39;8.90;99.90
9971;DHT22;5026;51.494;11.974;2023-05-07T02:51:05;9.00;99.90
9971;DHT22;5026;51.494;11.974;2023-05-07T02:53:32;9.00;99.90
9971;DHT22;5026;51.494;11.974;2023-05-07T02:56:00;9.00;99.90
9971;DHT22;5026;51.494;11.974;2023-05-07T02:58:28;9.00;99.90
9971;DHT22;5026;51.494;11.974;2023-05-07T03:00:55;8.90;99.90
9971;DHT22;5026;51.494;11.974;2023-05-07T03:03:22;9.00;99.90
9971;DHT22;5026;51.494;11.974;2023-05-07T03:05:50;8.90;99.90
9971;DHT22;5026;51.494;11.974;2023-05-07T03:08:17;8.90;99.90
9971;DHT22;5026;51.494;11.974;2023-05-07T03:10:44;8.90;99.90
9971;DHT22;5026;51.494;11.974;2023-05-07T03:13:11;8.90;99.90
9971;DHT22;5026;51.494;11.974;2023-05-07T03:15:38;8.80;99.90
9971;DHT22;5026;51.494;11.974;2023-05-07T03:18:05;8.90;99.90
9971;DHT22;5026;51.494;11.974;2023-05-07T03:20:32;8.90;99.90
9971;DHT22;5026;51.494;11.974;2023-05-07T03:23:00;8.80;99.90
9971;DHT22;5026;51.494;11.974;2023-05-07T03:25:27;8.80;99.90
9971;DHT22;5026;51.494;11.974;2023-05-07T03:27:55;8.80;99.90
9971;DHT22;5026;51.494;11.974;2023-05-07T03:30:22;8.80;99.90
9971;DHT22;5026;51.494;11.974;2023-05-07T03:32:50;8.80;99.90
9971;DHT22;5026;51.494;11.974;2023-05-07T03:35:17;8.90;99.90
9971;DHT22;5026;51.494;11.974;2023-05-07T03:37:43;8.80;99.90
9971;DHT22;5026;51.494;11.974;2023-05-07T03:40:12;8.80;99.90
9971;DHT22;5026;51.494;11.974;2023-05-07T03:42:39;8.80;99.90
9971;DHT22;5026;51.494;11.974;2023-05-07T03:45:07;8.80;99.90
9971;DHT22;5026;51.494;11.974;2023-05-07T03:47:35;8.80;99.90
9971;DHT22;5026;51.494;11.974;2023-05-07T03:50:02;8.80;99.90
9971;DHT22;5026;51.494;11.974;2023-05-07T03:52:29;8.80;99.90
9971;DHT22;5026;51.494;11.974;2023-05-07T03:54:56;8.80;99.90
9971;DHT22;5026;51.494;11.974;2023-05-07T03:57:24;8.80;99.90
9971;DHT22;5026;51.494;11.974;2023-05-07T03:59:51;8.90;99.90
9971;DHT22;5026;51.494;11.974;2023-05-07T04:02:18;8.80;99.90
9971;DHT22;5026;51.494;11.974;2023-05-07T04:04:45;8.80;99.90
9971;DHT22;5026;51.494;11.974;2023-05-07T04:07:12;8.80;99.90
9971;DHT22;5026;51.494;11.974;2023-05-07T04:09:39;8.80;99.90
9971;DHT22;5026;51.494;11.974;2023-05-07T04:12:06;8.80;99.90
9971;DHT22;5026;51.494;11.974;2023-05-07T04:14:34;8.70;99.90
9971;DHT22;5026;51.494;11.974;2023-05-07T04:17:02;8.70;99.90
9971;DHT22;5026;51.494;11.974;2023-05-07T04:19:28;8.80;99.90
9971;DHT22;5026;51.494;11.974;2023-05-07T04:21:56;8.70;99.90
9971;DHT22;5026;51.494;11.974;2023-05-07T04:24:23;8.80;99.90
9971;DHT22;5026;51.494;11.974;2023-05-07T04:26:49;8.70;99.90
9971;DHT22;5026;51.494;11.974;2023-05-07T04:29:18;8.70;99.90
9971;DHT22;5026;51.494;11.974;2023-05-07T04:31:46;8.80;99.90
9971;DHT22;5026;51.494;11.974;2023-05-07T04:34:13;8.80;99.90
9971;DHT22;5026;51.494;11.974;2023-05-07T04:36:40;8.80;99.90
9971;DHT22;5026;51.494;11.974;2023-05-07T04:39:07;8.80;99.90
9971;DHT22;5026;51.494;11.974;2023-05-07T04:41:35;8.70;99.90
9971;DHT22;5026;51.494;11.974;2023-05-07T04:44:02;8.80;99.90
9971;DHT22;5026;51.494;11.974;2023-05-07T04:46:31;8.80;99.90
9971;DHT22;5026;51.494;11.974;2023-05-07T04:48:59;8.80;99.90
9971;DHT22;5026;51.494;11.974;2023-05-07T04:51:26;8.80;99.90
9971;DHT22;5026;51.494;11.974;2023-05-07T04:53:53;8.90;99.90
9971;DHT22;5026;51.494;11.974;2023-05-07T04:56:20;8.90;99.90
9971;DHT22;5026;51.494;11.974;2023-05-07T04:58:47;8.90;99.90
9971;DHT22;5026;51.494;11.974;2023-05-07T05:01:14;8.90;99.90
9971;DHT22;5026;51.494;11.974;2023-05-07T05:03:41;8.80;99.90
9971;DHT22;5026;51.494;11.974;2023-05-07T05:06:10;8.90;99.90
9971;DHT22;5026;51.494;11.974;2023-05-07T05:08:36;9.00;99.90
9971;DHT22;5026;51.494;11.974;2023-05-07T05:11:04;9.10;99.90
9971;DHT22;5026;51.494;11.974;2023-05-07T05:13:30;9.00;99.90
9971;DHT22;5026;51.494;11.974;2023-05-07T05:15:57;9.00;99.90
9971;DHT22;5026;51.494;11.974;2023-05-07T05:18:24;8.90;99.90
9971;DHT22;5026;51.494;11.974;2023-05-07T05:20:51;8.90;99.90
9971;DHT22;5026;51.494;11.974;2023-05-07T05:23:20;9.10;99.90
9971;DHT22;5026;51.494;11.974;2023-05-07T05:25:46;9.10;99.90
9971;DHT22;5026;51.494;11.974;2023-05-07T05:28:13;9.20;99.90
9971;DHT22;5026;51.494;11.974;2023-05-07T05:30:40;9.20;99.90
9971;DHT22;5026;51.494;11.974;2023-05-07T05:33:07;9.30;99.90
9971;DHT22;5026;51.494;11.974;2023-05-07T05:35:34;9.20;99.90
9971;DHT22;5026;51.494;11.974;2023-05-07T05:38:01;9.20;99.90
9971;DHT22;5026;51.494;11.974;2023-05-07T05:40:30;9.10;99.90
9971;DHT22;5026;51.494;11.974;2023-05-07T05:42:57;9.20;99.90
9971;DHT22;5026;51.494;11.974;2023-05-07T05:45:24;9.20;99.90
9971;DHT22;5026;51.494;11.974;2023-05-07T05:47:51;9.20;99.90
9971;DHT22;5026;51.494;11.974;2023-05-07T05:50:18;9.10;99.90
9971;DHT22;5026;51.494;11.974;2023-05-07T05:52:45;9.10;99.90
9971;DHT22;5026;51.494;11.974;2023-05-07T05:55:12;9.20;99.90
9971;DHT22;5026;51.494;11.974;2023-05-07T05:57:41;9.20;99.90
9971;DHT22;5026;51.494;11.974;2023-05-07T06:00:09;9.20;99.90
9971;DHT22;5026;51.494;11.974;2023-05-07T06:02:36;9.20;99.90
9971;DHT22;5026;51.494;11.974;2023-05-07T06:05:04;9.20;99.90
9971;DHT22;5026;51.494;11.974;2023-05-07T06:07:31;9.30;99.90
9971;DHT22;5026;51.494;11.974;2023-05-07T06:09:58;9.30;99.90
9971;DHT22;5026;51.494;11.974;2023-05-07T06:12:24;9.20;99.90
9971;DHT22;5026;51.494;11.974;2023-05-07T06:14:53;9.20;99.90
9971;DHT22;5026;51.494;11.974;2023-05-07T06:17:20;9.00;99.90
9971;DHT22;5026;51.494;11.974;2023-05-07T06:19:47;9.00;99.90
9971;DHT22;5026;51.494;11.974;2023-05-07T06:22:14;9.00;99.90
9971;DHT22;5026;51.494;11.974;2023-05-07T06:24:41;9.20;99.90
9971;DHT22;5026;51.494;11.974;2023-05-07T06:27:08;9.30;99.90
9971;DHT22;5026;51.494;11.974;2023-05-07T06:29:35;9.40;99.90
9971;DHT22;5026;51.494;11.974;2023-05-07T06:32:10;9.40;99.90
9971;DHT22;5026;51.494;11.974;2023-05-07T06:34:38;9.40;99.90
9971;DHT22;5026;51.494;11.974;2023-05-07T06:37:05;9.50;99.90
9971;DHT22;5026;51.494;11.974;2023-05-07T06:39:33;9.60;99.90
9971;DHT22;5026;51.494;11.974;2023-05-07T06:42:00;9.70;99.90
9971;DHT22;5026;51.494;11.974;2023-05-07T06:44:27;9.90;99.90
9971;DHT22;5026;51.494;11.974;2023-05-07T06:46:54;9.90;99.90
9971;DHT22;5026;51.494;11.974;2023-05-07T06:49:22;9.70;99.90
9971;DHT22;5026;51.494;11.974;2023-05-07T06:51:49;9.80;99.90
9971;DHT22;5026;51.494;11.974;2023-05-07T06:54:16;9.80;99.90
9971;DHT22;5026;51.494;11.974;2023-05-07T06:56:43;9.70;99.90
9971;DHT22;5026;51.494;11.974;2023-05-07T06:59:10;9.70;99.90
9971;DHT22;5026;51.494;11.974;2023-05-07T07:01:37;9.60;99.90
9971;DHT22;5026;51.494;11.974;2023-05-07T07:04:04;9.60;99.90
9971;DHT22;5026;51.494;11.974;2023-05-07T07:06:32;9.50;99.90
9971;DHT22;5026;51.494;11.974;2023-05-07T07:08:59;9.70;99.90
9971;DHT22;5026;51.494;11.974;2023-05-07T07:11:26;9.90;99.90
9971;DHT22;5026;51.494;11.974;2023-05-07T07:13:53;9.80;99.90
9971;DHT22;5026;51.494;11.974;2023-05-07T07:16:21;9.80;99.90
9971;DHT22;5026;51.494;11.974;2023-05-07T07:18:47;10.00;99.90
9971;DHT22;5026;51.494;11.974;2023-05-07T07:21:14;10.10;99.90
9971;DHT22;5026;51.494;11.974;2023-05-07T07:23:43;9.90;99.90
9971;DHT22;5026;51.494;11.974;2023-05-07T07:26:10;9.90;99.90
9971;DHT22;5026;51.494;11.974;2023-05-07T07:28:42;10.00;99.90
9971;DHT22;5026;51.494;11.974;2023-05-07T07:31:09;9.90;99.90
9971;DHT22;5026;51.494;11.974;2023-05-07T07:33:36;10.00;99.90
9971;DHT22;5026;51.494;11.974;2023-05-07T07:36:04;9.80;99.90
9971;DHT22;5026;51.494;11.974;2023-05-07T07:38:32;9.90;99.90
9971;DHT22;5026;51.494;11.974;2023-05-07T07:41:00;9.90;99.90
9971;DHT22;5026;51.494;11.974;2023-05-07T07:43:27;9.90;99.90
9971;DHT22;5026;51.494;11.974;2023-05-07T07:45:54;10.00;99.90
9971;DHT22;5026;51.494;11.974;2023-05-07T07:48:21;9.90;99.90
9971;DHT22;5026;51.494;11.974;2023-05-07T07:50:48;9.90;99.90
9971;DHT22;5026;51.494;11.974;2023-05-07T07:53:16;9.90;99.90
9971;DHT22;5026;51.494;11.974;2023-05-07T07:55:43;9.90;99.90
9971;DHT22;5026;51.494;11.974;2023-05-07T07:58:11;9.80;99.90
9971;DHT22;5026;51.494;11.974;2023-05-07T08:00:38;9.90;99.90
9971;DHT22;5026;51.494;11.974;2023-05-07T08:03:05;9.90;99.90
9971;DHT22;5026;51.494;11.974;2023-05-07T08:05:32;10.00;99.90
9971;DHT22;5026;51.494;11.974;2023-05-07T08:07:59;10.20;99.90
9971;DHT22;5026;51.494;11.974;2023-05-07T08:10:26;10.20;99.90
9971;DHT22;5026;51.494;11.974;2023-05-07T08:12:53;10.30;99.90
9971;DHT22;5026;51.494;11.974;2023-05-07T08:15:22;10.20;99.90
9971;DHT22;5026;51.494;11.974;2023-05-07T08:17:49;10.20;99.90
9971;DHT22;5026;51.494;11.974;2023-05-07T08:20:15;10.00;99.90
9971;DHT22;5026;51.494;11.974;2023-05-07T08:22:42;10.00;99.90
9971;DHT22;5026;51.494;11.974;2023-05-07T08:25:09;10.10;99.90
9971;DHT22;5026;51.494;11.974;2023-05-07T08:27:36;10.20;99.90
9971;DHT22;5026;51.494;11.974;2023-05-07T08:30:04;10.40;99.90
9971;DHT22;5026;51.494;11.974;2023-05-07T08:32:33;10.20;99.90
9971;DHT22;5026;51.494;11.974;2023-05-07T08:35:00;10.20;99.90
9971;DHT22;5026;51.494;11.974;2023-05-07T08:37:27;10.30;99.90
9971;DHT22;5026;51.494;11.974;2023-05-07T08:39:54;10.40;99.90
9971;DHT22;5026;51.494;11.974;2023-05-07T08:42:23;10.50;99.90
9971;DHT22;5026;51.494;11.974;2023-05-07T08:44:51;10.50;99.90
9971;DHT22;5026;51.494;11.974;2023-05-07T08:47:22;10.70;99.90
9971;DHT22;5026;51.494;11.974;2023-05-07T08:49:51;10.50;99.90
9971;DHT22;5026;51.494;11.974;2023-05-07T08:52:18;10.50;99.90
9971;DHT22;5026;51.494;11.974;2023-05-07T08:54:46;10.60;99.90
9971;DHT22;5026;51.494;11.974;2023-05-07T08:57:13;10.70;99.90
9971;DHT22;5026;51.494;11.974;2023-05-07T08:59:40;10.90;99.90
9971;DHT22;5026;51.494;11.974;2023-05-07T09:02:09;10.70;99.90
9971;DHT22;5026;51.494;11.974;2023-05-07T09:04:36;10.70;99.90
9971;DHT22;5026;51.494;11.974;2023-05-07T09:07:05;10.80;99.90
9971;DHT22;5026;51.494;11.974;2023-05-07T09:09:32;10.90;99.90
9971;DHT22;5026;51.494;11.974;2023-05-07T09:12:00;10.80;99.90
9971;DHT22;5026;51.494;11.974;2023-05-07T09:14:27;10.60;99.90
9971;DHT22;5026;51.494;11.974;2023-05-07T09:16:56;10.60;99.90
9971;DHT22;5026;51.494;11.974;2023-05-07T09:19:26;10.70;99.90
9971;DHT22;5026;51.494;11.974;2023-05-07T09:21:58;10.50;99.90
9971;DHT22;5026;51.494;11.974;2023-05-07T09:24:27;10.60;99.90
9971;DHT22;5026;51.494;11.974;2023-05-07T09:26:58;10.80;99.90
9971;DHT22;5026;51.494;11.974;2023-05-07T09:29:25;10.70;99.90
9971;DHT22;5026;51.494;11.974;2023-05-07T09:31:54;10.90;99.90
9971;DHT22;5026;51.494;11.974;2023-05-07T09:34:22;11.00;99.90
9971;DHT22;5026;51.494;11.974;2023-05-07T09:36:49;11.00;99.90
9971;DHT22;5026;51.494;11.974;2023-05-07T09:39:16;10.80;99.90
9971;DHT22;5026;51.494;11.974;2023-05-07T09:41:45;10.60;99.90
9971;DHT22;5026;51.494;11.974;2023-05-07T09:44:12;11.00;99.90
9971;DHT22;5026;51.494;11.974;2023-05-07T09:46:43;10.80;99.90
9971;DHT22;5026;51.494;11.974;2023-05-07T09:49:15;10.90;99.90
9971;DHT22;5026;51.494;11.974;2023-05-07T09:51:48;11.20;99.90
9971;DHT22;5026;51.494;11.974;2023-05-07T09:54:16;11.00;99.90
9971;DHT22;5026;51.494;11.974;2023-05-07T09:56:45;10.80;99.90
9971;DHT22;5026;51.494;11.974;2023-05-07T09:59:14;10.90;99.90
9971;DHT22;5026;51.494;11.974;2023-05-07T10:01:42;10.90;99.90
9971;DHT22;5026;51.494;11.974;2023-05-07T10:04:10;10.70;99.90
9971;DHT22;5026;51.494;11.974;2023-05-07T10:06:38;10.80;99.90
9971;DHT22;5026;51.494;11.974;2023-05-07T10:09:05;11.00;99.90
9971;DHT22;5026;51.494;11.974;2023-05-07T10:11:32;10.80;99.90
9971;DHT22;5026;51.494;11.974;2023-05-07T10:14:02;10.70;99.90
9971;DHT22;5026;51.494;11.974;2023-05-07T10:16:31;10.80;99.90
9971;DHT22;5026;51.494;11.974;2023-05-07T10:19:02;10.90;99.90
9971;DHT22;5026;51.494;11.974;2023-05-07T10:21:30;10.90;99.90
9971;DHT22;5026;51.494;11.974;2023-05-07T10:23:59;10.90;99.90
9971;DHT22;5026;51.494;11.974;2023-05-07T10:26:28;11.00;99.90
9971;DHT22;5026;51.494;11.974;2023-05-07T10:29:02;10.80;99.90
9971;DHT22;5026;51.494;11.974;2023-05-07T10:31:48;10.90;99.90
9971;DHT22;5026;51.494;11.974;2023-05-07T10:34:21;10.90;99.90
9971;DHT22;5026;51.494;11.974;2023-05-07T10:36:49;11.20;99.90
9971;DHT22;5026;51.494;11.974;2023-05-07T10:39:17;10.90;99.90
9971;DHT22;5026;51.494;11.974;2023-05-07T10:41:47;10.90;99.90
9971;DHT22;5026;51.494;11.974;2023-05-07T10:44:26;10.90;99.90
9971;DHT22;5026;51.494;11.974;2023-05-07T10:47:04;11.10;99.90
9971;DHT22;5026;51.494;11.974;2023-05-07T10:49:34;10.90;99.90
9971;DHT22;5026;51.494;11.974;2023-05-07T10:52:19;11.20;99.90
9971;DHT22;5026;51.494;11.974;2023-05-07T10:54:47;10.90;99.90
9971;DHT22;5026;51.494;11.974;2023-05-07T10:57:32;10.90;99.90
9971;DHT22;5026;51.494;11.974;2023-05-07T11:00:06;10.90;99.90
9971;DHT22;5026;51.494;11.974;2023-05-07T11:03:05;11.00;99.90
9971;DHT22;5026;51.494;11.974;2023-05-07T11:05:33;11.10;99.90
9971;DHT22;5026;51.494;11.974;2023-05-07T11:08:01;11.10;99.90
9971;DHT22;5026;51.494;11.974;2023-05-07T11:10:49;11.20;99.90
9971;DHT22;5026;51.494;11.974;2023-05-07T11:13:17;11.30;99.90
9971;DHT22;5026;51.494;11.974;2023-05-07T11:15:47;11.40;99.90
9971;DHT22;5026;51.494;11.974;2023-05-07T11:18:16;11.40;99.90
9971;DHT22;5026;51.494;11.974;2023-05-07T11:20:54;11.30;99.90
9971;DHT22;5026;51.494;11.974;2023-05-07T11:26:23;11.30;99.90
9971;DHT22;5026;51.494;11.974;2023-05-07T11:28:51;11.40;99.90
9971;DHT22;5026;51.494;11.974;2023-05-07T11:31:23;11.80;99.90
9971;DHT22;5026;51.494;11.974;2023-05-07T11:33:52;11.90;99.90
9971;DHT22;5026;51.494;11.974;2023-05-07T11:36:20;11.70;99.90
9971;DHT22;5026;51.494;11.974;2023-05-07T11:38:47;11.70;99.90
9971;DHT22;5026;51.494;11.974;2023-05-07T11:41:15;11.40;99.90
9971;DHT22;5026;51.494;11.974;2023-05-07T11:43:56;11.50;99.90
9971;DHT22;5026;51.494;11.974;2023-05-07T11:46:26;12.00;99.90
9971;DHT22;5026;51.494;11.974;2023-05-07T11:48:53;12.20;99.90
9971;DHT22;5026;51.494;11.974;2023-05-07T11:51:21;11.90;99.90
9971;DHT22;5026;51.494;11.974;2023-05-07T11:53:49;11.70;99.90
9971;DHT22;5026;51.494;11.974;2023-05-07T11:56:18;12.10;99.90
9971;DHT22;5026;51.494;11.974;2023-05-07T11:58:46;11.50;99.90
9971;DHT22;5026;51.494;11.974;2023-05-07T12:01:14;11.30;99.90
9971;DHT22;5026;51.494;11.974;2023-05-07T12:03:44;11.30;99.90
9971;DHT22;5026;51.494;11.974;2023-05-07T12:06:12;11.30;99.90
9971;DHT22;5026;51.494;11.974;2023-05-07T12:08:41;11.50;99.90
9971;DHT22;5026;51.494;11.974;2023-05-07T12:11:09;11.70;99.90
9971;DHT22;5026;51.494;11.974;2023-05-07T12:13:37;11.50;99.90
9971;DHT22;5026;51.494;11.974;2023-05-07T12:16:06;11.70;99.90
9971;DHT22;5026;51.494;11.974;2023-05-07T12:18:34;12.00;99.90
9971;DHT22;5026;51.494;11.974;2023-05-07T12:21:04;12.30;99.90
9971;DHT22;5026;51.494;11.974;2023-05-07T12:23:31;12.50;99.90
9971;DHT22;5026;51.494;11.974;2023-05-07T12:25:59;12.50;99.90
9971;DHT22;5026;51.494;11.974;2023-05-07T12:28:26;12.40;99.90
9971;DHT22;5026;51.494;11.974;2023-05-07T12:30:53;11.90;99.90
9971;DHT22;5026;51.494;11.974;2023-05-07T12:33:25;11.80;99.90
9971;DHT22;5026;51.494;11.974;2023-05-07T12:35:54;12.20;99.90
9971;DHT22;5026;51.494;11.974;2023-05-07T12:38:23;12.10;99.90
9971;DHT22;5026;51.494;11.974;2023-05-07T12:40:53;12.00;99.90
9971;DHT22;5026;51.494;11.974;2023-05-07T12:43:21;12.20;99.90
9971;DHT22;5026;51.494;11.974;2023-05-07T12:45:52;12.10;99.90
9971;DHT22;5026;51.494;11.974;2023-05-07T12:48:21;11.90;99.90
9971;DHT22;5026;51.494;11.974;2023-05-07T12:50:49;12.00;99.90
9971;DHT22;5026;51.494;11.974;2023-05-07T12:53:19;11.90;99.90
9971;DHT22;5026;51.494;11.974;2023-05-07T12:55:49;12.00;99.90
9971;DHT22;5026;51.494;11.974;2023-05-07T12:58:17;12.00;99.90
9971;DHT22;5026;51.494;11.974;2023-05-07T13:00:47;11.90;99.90
9971;DHT22;5026;51.494;11.974;2023-05-07T13:03:21;12.00;99.90
9971;DHT22;5026;51.494;11.974;2023-05-07T13:05:49;11.70;99.90
9971;DHT22;5026;51.494;11.974;2023-05-07T13:08:24;12.00;99.90
9971;DHT22;5026;51.494;11.974;2023-05-07T13:10:53;12.50;99.90
9971;DHT22;5026;51.494;11.974;2023-05-07T13:13:20;12.30;99.90
9971;DHT22;5026;51.494;11.974;2023-05-07T13:15:47;12.70;99.90
9971;DHT22;5026;51.494;11.974;2023-05-07T13:18:14;12.90;99.80
9971;DHT22;5026;51.494;11.974;2023-05-07T13:20:41;12.70;99.70
9971;DHT22;5026;51.494;11.974;2023-05-07T13:23:07;12.60;99.70
9971;DHT22;5026;51.494;11.974;2023-05-07T13:25:34;12.40;99.70
9971;DHT22;5026;51.494;11.974;2023-05-07T13:28:03;12.30;99.80
9971;DHT22;5026;51.494;11.974;2023-05-07T13:30:30;12.10;99.90
9971;DHT22;5026;51.494;11.974;2023-05-07T13:32:57;12.40;99.90
9971;DHT22;5026;51.494;11.974;2023-05-07T13:35:24;12.40;99.90
9971;DHT22;5026;51.494;11.974;2023-05-07T13:37:51;12.50;99.90
9971;DHT22;5026;51.494;11.974;2023-05-07T13:40:20;12.70;99.70
9971;DHT22;5026;51.494;11.974;2023-05-07T13:42:47;13.30;99.80
9971;DHT22;5026;51.494;11.974;2023-05-07T13:45:15;13.70;99.20
9971;DHT22;5026;51.494;11.974;2023-05-07T13:47:42;13.40;99.20
9971;DHT22;5026;51.494;11.974;2023-05-07T13:50:11;13.30;99.00
9971;DHT22;5026;51.494;11.974;2023-05-07T13:52:41;13.60;99.20
9971;DHT22;5026;51.494;11.974;2023-05-07T13:55:09;13.70;99.20
9971;DHT22;5026;51.494;11.974;2023-05-07T13:57:36;13.60;99.10
9971;DHT22;5026;51.494;11.974;2023-05-07T14:00:04;13.50;99.10
9971;DHT22;5026;51.494;11.974;2023-05-07T14:02:33;13.60;99.20
9971;DHT22;5026;51.494;11.974;2023-05-07T14:05:00;13.00;99.50
9971;DHT22;5026;51.494;11.974;2023-05-07T14:07:27;13.20;99.50
9971;DHT22;5026;51.494;11.974;2023-05-07T14:09:54;13.40;99.50
9971;DHT22;5026;51.494;11.974;2023-05-07T14:12:21;13.30;99.40
9971;DHT22;5026;51.494;11.974;2023-05-07T14:14:48;13.40;98.70
9971;DHT22;5026;51.494;11.974;2023-05-07T14:17:16;13.50;98.80
9971;DHT22;5026;51.494;11.974;2023-05-07T14:19:44;13.60;98.80
9971;DHT22;5026;51.494;11.974;2023-05-07T14:22:13;13.40;99.00
9971;DHT22;5026;51.494;11.974;2023-05-07T14:24:41;13.00;99.30
9971;DHT22;5026;51.494;11.974;2023-05-07T14:27:08;12.70;99.60
9971;DHT22;5026;51.494;11.974;2023-05-07T14:29:35;12.60;99.70
9971;DHT22;5026;51.494;11.974;2023-05-07T14:32:02;12.60;99.80
9971;DHT22;5026;51.494;11.974;2023-05-07T14:34:29;12.80;99.60
9971;DHT22;5026;51.494;11.974;2023-05-07T14:36:59;13.10;99.40
9971;DHT22;5026;51.494;11.974;2023-05-07T14:39:27;13.00;99.40
9971;DHT22;5026;51.494;11.974;2023-05-07T14:41:53;12.80;99.40
9971;DHT22;5026;51.494;11.974;2023-05-07T14:44:21;12.90;99.40
9971;DHT22;5026;51.494;11.974;2023-05-07T14:46:48;12.80;99.60
9971;DHT22;5026;51.494;11.974;2023-05-07T14:49:16;12.70;99.30
9971;DHT22;5026;51.494;11.974;2023-05-07T14:51:44;12.60;99.50
9971;DHT22;5026;51.494;11.974;2023-05-07T14:54:13;12.80;99.60
9971;DHT22;5026;51.494;11.974;2023-05-07T14:56:41;13.00;99.50
9971;DHT22;5026;51.494;11.974;2023-05-07T14:59:08;13.00;99.30
9971;DHT22;5026;51.494;11.974;2023-05-07T15:01:36;12.70;99.30
9971;DHT22;5026;51.494;11.974;2023-05-07T15:04:03;12.60;99.60
9971;DHT22;5026;51.494;11.974;2023-05-07T15:06:31;12.80;99.70
9971;DHT22;5026;51.494;11.974;2023-05-07T15:08:59;13.00;99.60
9971;DHT22;5026;51.494;11.974;2023-05-07T15:11:27;12.90;99.30
9971;DHT22;5026;51.494;11.974;2023-05-07T15:13:54;12.80;99.50
9971;DHT22;5026;51.494;11.974;2023-05-07T15:16:21;12.80;99.30
9971;DHT22;5026;51.494;11.974;2023-05-07T15:18:48;12.70;99.30
9971;DHT22;5026;51.494;11.974;2023-05-07T15:21:15;12.60;99.50
9971;DHT22;5026;51.494;11.974;2023-05-07T15:23:42;12.60;99.50
9971;DHT22;5026;51.494;11.974;2023-05-07T15:26:10;12.60;99.60
9971;DHT22;5026;51.494;11.974;2023-05-07T15:28:38;12.70;99.60
9971;DHT22;5026;51.494;11.974;2023-05-07T15:31:06;12.80;99.40
9971;DHT22;5026;51.494;11.974;2023-05-07T15:33:33;12.70;99.30
9971;DHT22;5026;51.494;11.974;2023-05-07T15:35:59;12.70;99.40
9971;DHT22;5026;51.494;11.974;2023-05-07T15:38:28;12.70;99.40
9971;DHT22;5026;51.494;11.974;2023-05-07T15:40:55;12.90;99.40
9971;DHT22;5026;51.494;11.974;2023-05-07T15:43:22;13.10;99.50
9971;DHT22;5026;51.494;11.974;2023-05-07T15:45:51;13.10;99.40
9971;DHT22;5026;51.494;11.974;2023-05-07T15:48:18;13.30;99.20
9971;DHT22;5026;51.494;11.974;2023-05-07T15:50:45;13.00;99.00
9971;DHT22;5026;51.494;11.974;2023-05-07T15:53:13;12.80;99.20
9971;DHT22;5026;51.494;11.974;2023-05-07T15:55:40;12.80;99.30
9971;DHT22;5026;51.494;11.974;2023-05-07T15:58:08;12.70;99.20
9971;DHT22;5026;51.494;11.974;2023-05-07T16:00:36;12.70;99.30
9971;DHT22;5026;51.494;11.974;2023-05-07T16:03:06;12.60;99.20